createdAt,value
2022-10-24T00:01:25.848Z,11.18
2022-10-24T00:03:53.068Z,11.15
2022-10-24T00:06:20.994Z,11.01
2022-10-24T00:08:49.057Z,10.89
2022-10-24T00:11:26.697Z,10.87
2022-10-24T00:13:56.751Z,10.84
2022-10-24T00:16:24.318Z,10.88
2022-10-24T00:18:51.588Z,10.95
2022-10-24T00:21:18.930Z,10.95
2022-10-24T00:23:46.503Z,10.97
2022-10-24T00:26:14.324Z,11.02
2022-10-24T00:28:41.936Z,11.12
2022-10-24T00:31:14.796Z,11.04
2022-10-24T00:33:44.006Z,11.01
2022-10-24T00:36:17.904Z,10.97
2022-10-24T00:38:45.682Z,10.98
2022-10-24T00:41:26.890Z,11.05
2022-10-24T00:44:37.039Z,10.99
2022-10-24T00:47:26.003Z,10.98
2022-10-24T00:50:14.328Z,10.99
2022-10-24T00:52:46.374Z,11.03
2022-10-24T00:55:15.239Z,11.11
2022-10-24T00:57:53.413Z,11.10
2022-10-24T01:00:27.675Z,11.12
2022-10-24T01:02:55.207Z,11.04
2022-10-24T01:05:26.755Z,10.99
2022-10-24T01:08:36.885Z,10.95
2022-10-24T01:11:40.834Z,11.08
2022-10-24T01:14:44.404Z,11.14
2022-10-24T01:17:39.426Z,11.29
2022-10-24T01:21:03.381Z,11.21
2022-10-24T01:23:56.305Z,11.15
2022-10-24T01:26:50.467Z,11.07
2022-10-24T01:29:57.865Z,11.11
2022-10-24T01:32:58.610Z,11.15
2022-10-24T01:35:36.472Z,11.11
2022-10-24T01:38:38.916Z,11.12
2022-10-24T01:41:23.026Z,11.25
2022-10-24T01:44:07.016Z,11.40
2022-10-24T01:47:03.675Z,11.54
2022-10-24T01:49:36.625Z,11.57
2022-10-24T01:52:11.564Z,11.58
2022-10-24T01:54:40.170Z,11.54
2022-10-24T01:57:08.030Z,11.50
2022-10-24T01:59:44.245Z,11.44
2022-10-24T02:02:20.508Z,11.41
2022-10-24T02:05:12.763Z,11.36
2022-10-24T02:07:43.457Z,11.25
2022-10-24T02:10:18.468Z,11.25
2022-10-24T02:12:53.502Z,11.30
2022-10-24T02:15:33.454Z,11.32
2022-10-24T02:18:02.154Z,11.34
2022-10-24T02:20:36.764Z,11.41
2022-10-24T02:23:18.653Z,11.42
2022-10-24T02:25:52.637Z,11.41
2022-10-24T02:28:25.673Z,11.42
2022-10-24T02:31:17.566Z,11.46
2022-10-24T02:33:46.659Z,11.46
2022-10-24T02:36:18.941Z,11.41
2022-10-24T02:38:50.863Z,11.38
2022-10-24T02:41:28.724Z,11.35
2022-10-24T02:43:57.517Z,11.30
2022-10-24T02:46:25.958Z,11.37
2022-10-24T02:49:02.723Z,11.50
2022-10-24T02:51:34.978Z,11.57
2022-10-24T02:54:03.032Z,11.64
2022-10-24T02:56:31.062Z,11.62
2022-10-24T02:58:58.469Z,11.63
2022-10-24T03:01:25.765Z,11.71
2022-10-24T03:03:53.120Z,11.76
2022-10-24T03:06:20.445Z,11.84
2022-10-24T03:08:47.677Z,11.80
2022-10-24T03:11:14.882Z,11.76
2022-10-24T03:13:42.061Z,11.77
2022-10-24T03:16:11.728Z,11.83
2022-10-24T03:18:41.246Z,11.87
2022-10-24T03:21:08.524Z,11.76
2022-10-24T03:23:35.800Z,11.75
2022-10-24T03:26:03.144Z,11.76
2022-10-24T03:28:30.458Z,11.83
2022-10-24T03:30:57.706Z,11.80
2022-10-24T03:33:25.005Z,11.75
2022-10-24T03:35:55.310Z,11.70
2022-10-24T03:38:24.009Z,11.73
2022-10-24T03:40:52.095Z,11.63
2022-10-24T03:43:19.857Z,11.67
2022-10-24T03:45:47.225Z,11.68
2022-10-24T03:48:14.549Z,11.76
2022-10-24T03:50:44.527Z,11.67
2022-10-24T03:53:11.866Z,11.73
2022-10-24T03:55:39.074Z,11.77
2022-10-24T03:58:06.381Z,11.73
2022-10-24T04:00:39.028Z,11.67
2022-10-24T04:03:07.721Z,11.68
2022-10-24T04:05:35.404Z,11.56
2022-10-24T04:08:03.525Z,11.49
2022-10-24T04:10:30.890Z,11.34
2022-10-24T04:12:58.119Z,11.41
2022-10-24T04:15:25.563Z,11.40
2022-10-24T04:17:52.895Z,11.26
2022-10-24T04:20:22.444Z,11.22
2022-10-24T04:22:49.830Z,11.17
2022-10-24T04:25:17.964Z,11.16
2022-10-24T04:27:45.645Z,11.18
2022-10-24T04:30:16.464Z,11.19
2022-10-24T04:32:45.044Z,10.95
2022-10-24T04:35:14.210Z,10.85
2022-10-24T04:37:41.472Z,10.92
2022-10-24T04:40:09.418Z,10.94
2022-10-24T04:42:36.691Z,11.07
2022-10-24T04:45:04.374Z,11.16
2022-10-24T04:47:31.752Z,11.26
2022-10-24T04:49:59.273Z,11.31
2022-10-24T04:52:26.533Z,11.43
2022-10-24T04:54:55.093Z,11.53
2022-10-24T04:57:22.499Z,11.61
2022-10-24T04:59:49.761Z,11.63
2022-10-24T05:02:17.103Z,11.67
2022-10-24T05:04:44.358Z,11.74
2022-10-24T05:07:11.532Z,11.89
2022-10-24T05:09:38.757Z,12.10
2022-10-24T05:12:06.335Z,12.18
2022-10-24T05:14:33.648Z,12.18
2022-10-24T05:17:00.905Z,12.23
2022-10-24T05:19:28.186Z,12.25
2022-10-24T05:21:55.512Z,12.21
2022-10-24T05:24:22.985Z,12.00
2022-10-24T05:26:50.262Z,11.87
2022-10-24T05:29:17.583Z,11.64
2022-10-24T05:31:44.745Z,11.64
2022-10-24T05:34:11.997Z,11.74
2022-10-24T05:36:39.339Z,11.89
2022-10-24T05:39:06.692Z,11.96
2022-10-24T05:41:34.048Z,11.94
2022-10-24T05:44:01.370Z,11.92
2022-10-24T05:46:28.680Z,11.96
2022-10-24T05:48:56.025Z,11.92
2022-10-24T05:51:23.368Z,11.95
2022-10-24T05:53:50.557Z,11.91
2022-10-24T05:56:17.704Z,12.01
2022-10-24T05:58:44.863Z,12.14
2022-10-24T06:01:12.246Z,12.24
2022-10-24T06:03:39.640Z,12.33
2022-10-24T06:06:09.009Z,12.45
2022-10-24T06:08:38.130Z,12.62
2022-10-24T06:11:09.871Z,12.86
2022-10-24T06:13:38.205Z,13.07
2022-10-24T06:16:10.641Z,13.37
2022-10-24T06:18:39.576Z,13.58
2022-10-24T06:21:09.333Z,13.76
2022-10-24T06:23:36.806Z,14.00
2022-10-24T06:26:10.983Z,14.32
2022-10-24T06:28:39.047Z,14.60
2022-10-24T06:31:06.276Z,14.78
2022-10-24T06:33:33.900Z,14.96
2022-10-24T06:36:05.598Z,15.12
2022-10-24T06:38:33.448Z,15.07
2022-10-24T06:41:10.116Z,15.20
2022-10-24T06:43:38.249Z,15.30
2022-10-24T06:46:10.627Z,15.73
2022-10-24T06:48:38.546Z,16.14
2022-10-24T06:51:06.830Z,16.64
2022-10-24T06:53:34.685Z,16.85
2022-10-24T06:56:06.753Z,17.28
2022-10-24T06:58:36.866Z,17.35
2022-10-24T07:01:20.954Z,17.34
2022-10-24T07:03:49.397Z,17.45
2022-10-24T07:06:20.886Z,17.47
2022-10-24T07:08:48.664Z,18.31
2022-10-24T07:11:15.916Z,19.12
2022-10-24T07:13:43.095Z,19.90
2022-10-24T07:16:11.170Z,20.52
2022-10-24T07:18:38.873Z,21.53
2022-10-24T07:21:10.801Z,22.45
2022-10-24T07:23:38.136Z,23.31
2022-10-24T07:26:15.076Z,23.72
2022-10-24T07:28:46.581Z,24.42
2022-10-24T07:31:25.692Z,24.94
2022-10-24T07:33:53.353Z,25.43
2022-10-24T07:36:24.893Z,24.47
2022-10-24T07:38:55.628Z,24.60
2022-10-24T07:41:24.823Z,26.03
2022-10-24T07:43:54.951Z,26.60
2022-10-24T07:46:22.555Z,27.94
2022-10-24T07:48:54.015Z,27.57
2022-10-24T07:51:22.290Z,27.65
2022-10-24T07:53:50.200Z,27.44
2022-10-24T07:56:18.449Z,28.18
2022-10-24T07:58:47.226Z,28.26
2022-10-24T08:01:18.891Z,27.74
2022-10-24T08:03:47.058Z,27.78
2022-10-24T08:06:21.132Z,28.14
2022-10-24T08:08:48.447Z,26.97
2022-10-24T08:11:21.833Z,25.38
2022-10-24T08:13:51.713Z,22.46
2022-10-24T08:16:22.069Z,21.88
2022-10-24T08:18:51.622Z,21.83
2022-10-24T08:21:21.193Z,20.97
2022-10-24T08:23:51.823Z,20.33
2022-10-24T08:26:23.195Z,19.99
2022-10-24T08:28:51.032Z,19.79
2022-10-24T08:31:21.841Z,19.77
2022-10-24T08:33:53.576Z,19.33
2022-10-24T08:36:30.080Z,18.30
2022-10-24T08:38:57.923Z,18.11
2022-10-24T08:41:41.096Z,17.83
2022-10-24T08:44:33.218Z,17.68
2022-10-24T08:47:10.066Z,17.61
2022-10-24T08:49:58.467Z,17.66
2022-10-24T08:52:33.132Z,17.81
2022-10-24T08:55:25.079Z,17.54
2022-10-24T08:57:58.880Z,17.35
2022-10-24T09:00:34.891Z,17.11
2022-10-24T09:03:31.476Z,17.01
2022-10-24T09:06:19.509Z,17.19
2022-10-24T09:08:58.249Z,17.18
2022-10-24T09:11:53.418Z,17.30
2022-10-24T09:14:34.342Z,17.13
2022-10-24T09:17:29.638Z,16.89
2022-10-24T09:20:16.662Z,16.87
2022-10-24T09:22:44.905Z,17.09
2022-10-24T09:25:17.531Z,17.03
2022-10-24T09:27:45.536Z,17.14
2022-10-24T09:30:30.077Z,17.66
2022-10-24T09:33:29.404Z,18.57
2022-10-24T09:36:04.459Z,19.91
2022-10-24T09:38:38.943Z,19.97
2022-10-24T09:41:30.212Z,19.49
2022-10-24T09:44:00.648Z,19.17
2022-10-24T09:46:45.109Z,19.29
2022-10-24T09:49:22.737Z,21.04
2022-10-24T09:52:00.911Z,22.33
2022-10-24T09:54:33.498Z,22.37
2022-10-24T09:57:12.786Z,22.01
2022-10-24T09:59:50.426Z,22.74
2022-10-24T10:02:24.818Z,23.67
2022-10-24T10:05:04.517Z,24.57
2022-10-24T10:07:33.081Z,25.39
2022-10-24T10:10:24.201Z,25.75
2022-10-24T10:13:07.834Z,25.31
2022-10-24T10:15:50.614Z,25.94
2022-10-24T10:18:39.819Z,25.82
2022-10-24T10:21:13.028Z,26.63
2022-10-24T10:23:50.549Z,27.61
2022-10-24T10:26:41.824Z,28.93
2022-10-24T10:29:21.116Z,28.55
2022-10-24T10:31:56.777Z,30.54
2022-10-24T10:34:48.849Z,31.04
2022-10-24T10:37:36.020Z,31.17
2022-10-24T10:40:19.801Z,30.59
2022-10-24T10:43:20.693Z,29.97
2022-10-24T10:46:08.448Z,29.64
2022-10-24T10:49:02.692Z,29.66
2022-10-24T10:51:43.573Z,31.10
2022-10-24T10:54:56.740Z,31.35
2022-10-24T10:58:06.975Z,30.74
2022-10-24T11:01:02.951Z,31.79
2022-10-24T11:04:00.166Z,31.98
2022-10-24T11:09:45.555Z,27.55
2022-10-24T11:12:24.995Z,26.20
2022-10-24T11:15:20.882Z,26.22
2022-10-24T11:18:16.039Z,29.33
2022-10-24T11:21:11.609Z,29.90
2022-10-24T11:24:15.580Z,31.08
2022-10-24T11:26:51.812Z,30.88
2022-10-24T11:29:41.462Z,30.89
2022-10-24T11:32:36.095Z,30.00
2022-10-24T11:35:33.176Z,28.42
2022-10-24T11:38:20.797Z,27.73
2022-10-24T11:40:58.826Z,25.87
2022-10-24T11:43:36.786Z,25.80
2022-10-24T11:46:41.142Z,25.23
2022-10-24T11:49:31.585Z,24.62
2022-10-24T11:52:31.419Z,23.39
2022-10-24T11:55:23.113Z,23.32
2022-10-24T11:57:59.555Z,23.32
2022-10-24T12:00:41.112Z,23.31
2022-10-24T12:03:25.960Z,23.06
2022-10-24T12:06:36.293Z,22.66
2022-10-24T12:09:29.596Z,22.52
2022-10-24T12:12:36.005Z,22.26
2022-10-24T12:15:17.699Z,22.19
2022-10-24T12:18:20.357Z,21.96
2022-10-24T12:20:53.801Z,21.89
2022-10-24T12:23:31.448Z,21.33
2022-10-24T12:26:19.902Z,21.40
2022-10-24T12:29:24.895Z,21.33
2022-10-24T12:31:52.521Z,21.71
2022-10-24T12:34:19.798Z,22.87
2022-10-24T12:37:12.250Z,23.45
2022-10-24T12:39:45.815Z,24.29
2022-10-24T12:42:23.959Z,25.41
2022-10-24T12:45:11.694Z,24.97
2022-10-24T12:48:03.900Z,23.86
2022-10-24T12:50:34.302Z,23.07
2022-10-24T12:53:24.741Z,22.67
2022-10-24T12:56:05.150Z,21.82
2022-10-24T12:58:39.254Z,21.54
2022-10-24T13:01:26.020Z,21.35
2022-10-24T13:04:25.242Z,21.48
2022-10-24T13:07:22.966Z,22.04
2022-10-24T13:10:46.120Z,22.30
2022-10-24T13:13:34.471Z,22.29
2022-10-24T13:16:35.292Z,22.64
2022-10-24T13:19:18.132Z,22.62
2022-10-24T13:21:50.305Z,22.30
2022-10-24T13:24:17.356Z,21.92
2022-10-24T13:26:55.875Z,21.53
2022-10-24T13:29:29.288Z,21.32
2022-10-24T13:32:18.787Z,20.91
2022-10-24T13:34:52.523Z,20.57
2022-10-24T13:37:36.281Z,20.13
2022-10-24T13:40:22.062Z,19.95
2022-10-24T13:42:59.581Z,19.79
2022-10-24T13:45:57.798Z,19.61
2022-10-24T13:48:30.594Z,19.40
2022-10-24T13:51:31.995Z,19.31
2022-10-24T13:54:11.433Z,19.30
2022-10-24T13:56:41.561Z,19.28
2022-10-24T13:59:30.497Z,19.09
2022-10-24T14:02:02.098Z,19.08
2022-10-24T14:04:30.304Z,19.10
2022-10-24T14:07:07.095Z,18.94
2022-10-24T14:09:44.000Z,18.82
2022-10-24T14:12:24.565Z,18.76
2022-10-24T14:14:52.954Z,18.74
2022-10-24T14:17:29.249Z,18.72
2022-10-24T14:20:25.220Z,18.62
2022-10-24T14:22:52.640Z,18.32
2022-10-24T14:25:35.354Z,18.13
2022-10-24T14:28:17.573Z,18.03
2022-10-24T14:30:59.936Z,17.96
2022-10-24T14:33:41.445Z,17.82
2022-10-24T14:36:09.308Z,17.73
2022-10-24T14:38:37.089Z,17.57
2022-10-24T14:41:10.226Z,17.47
2022-10-24T14:43:42.225Z,17.46
2022-10-24T14:46:12.862Z,17.41
2022-10-24T14:48:44.143Z,17.40
2022-10-24T14:51:31.959Z,17.28
2022-10-24T14:54:02.510Z,17.21
2022-10-24T14:56:39.752Z,17.20
2022-10-24T14:59:20.033Z,17.20
2022-10-24T15:02:02.424Z,17.16
2022-10-24T15:04:43.165Z,17.14
2022-10-24T15:07:36.698Z,17.02
2022-10-24T15:10:13.506Z,16.99
2022-10-24T15:13:02.350Z,16.91
2022-10-24T15:15:34.505Z,16.87
2022-10-24T15:18:27.723Z,16.62
2022-10-24T15:21:20.838Z,16.51
2022-10-24T15:23:58.471Z,16.38
2022-10-24T15:26:42.850Z,16.26
2022-10-24T15:29:12.837Z,16.04
2022-10-24T15:31:43.946Z,15.93
2022-10-24T15:34:23.963Z,15.86
2022-10-24T15:36:53.288Z,15.76
2022-10-24T15:39:25.792Z,15.74
2022-10-24T15:41:54.332Z,15.73
2022-10-24T15:44:27.922Z,15.61
2022-10-24T15:46:56.487Z,15.67
2022-10-24T15:49:23.743Z,15.64
2022-10-24T15:51:51.521Z,15.56
2022-10-24T15:54:22.088Z,15.57
2022-10-24T15:56:50.025Z,15.63
2022-10-24T15:59:19.964Z,15.64
2022-10-24T16:02:00.356Z,15.62
2022-10-24T16:04:28.751Z,15.59
2022-10-24T16:06:56.103Z,15.56
2022-10-24T16:09:27.641Z,15.58
2022-10-24T16:11:55.703Z,15.51
2022-10-24T16:14:26.002Z,15.67
2022-10-24T16:16:55.206Z,15.72
2022-10-24T16:19:26.436Z,15.78
2022-10-24T16:21:58.895Z,15.70
2022-10-24T16:24:28.068Z,15.69
2022-10-24T16:26:55.500Z,15.68
2022-10-24T16:29:22.918Z,15.65
2022-10-24T16:31:50.857Z,15.48
2022-10-24T16:34:18.251Z,15.39
2022-10-24T16:36:45.606Z,15.41
2022-10-24T16:39:14.530Z,15.30
2022-10-24T16:41:46.229Z,15.29
2022-10-24T16:44:14.477Z,15.21
2022-10-24T16:46:41.861Z,15.21
2022-10-24T16:49:09.079Z,15.28
2022-10-24T16:51:39.279Z,15.49
2022-10-24T16:54:09.011Z,15.55
2022-10-24T16:56:36.517Z,15.50
2022-10-24T16:59:03.789Z,15.50
2022-10-24T17:01:31.369Z,15.46
2022-10-24T17:03:58.943Z,15.35
2022-10-24T17:06:26.411Z,15.23
2022-10-24T17:08:53.804Z,15.17
2022-10-24T17:11:43.842Z,15.17
2022-10-24T17:16:43.037Z,15.05
2022-10-24T17:19:17.926Z,15.04
2022-10-24T17:21:48.563Z,15.06
2022-10-24T17:24:20.810Z,14.99
2022-10-24T17:26:50.180Z,14.99
2022-10-24T17:29:43.925Z,15.14
2022-10-24T17:32:13.643Z,15.17
2022-10-24T17:34:43.803Z,15.22
2022-10-24T17:37:37.300Z,15.30
2022-10-24T17:40:16.242Z,15.33
2022-10-24T17:42:48.258Z,15.48
2022-10-24T17:45:22.762Z,15.54
2022-10-24T17:47:50.369Z,15.60
2022-10-24T17:50:19.472Z,15.65
2022-10-24T17:52:51.054Z,15.60
2022-10-24T17:55:45.079Z,15.49
2022-10-24T17:58:13.385Z,15.32
2022-10-24T18:00:41.154Z,15.26
2022-10-24T18:03:11.523Z,15.29
2022-10-24T18:05:39.223Z,15.30
2022-10-24T18:08:09.888Z,15.32
2022-10-24T18:10:38.554Z,15.32
2022-10-24T18:13:06.762Z,15.36
2022-10-24T18:15:35.267Z,15.43
2022-10-24T18:18:02.524Z,15.39
2022-10-24T18:20:30.036Z,15.37
2022-10-24T18:22:58.960Z,15.34
2022-10-24T18:25:27.075Z,15.40
2022-10-24T18:27:55.499Z,15.34
2022-10-24T18:30:22.815Z,15.29
2022-10-24T18:32:50.462Z,15.25
2022-10-24T18:35:18.171Z,15.28
2022-10-24T18:37:45.548Z,15.22
2022-10-24T18:40:13.810Z,15.20
2022-10-24T18:43:05.285Z,15.25
2022-10-24T18:45:33.677Z,15.30
2022-10-24T18:48:01.184Z,15.28
2022-10-24T18:50:28.838Z,15.31
2022-10-24T18:53:07.703Z,15.27
2022-10-24T18:55:35.986Z,15.19
2022-10-24T18:58:04.117Z,15.17
2022-10-24T19:00:36.598Z,15.18
2022-10-24T19:03:19.638Z,15.07
2022-10-24T19:06:08.135Z,14.95
2022-10-24T19:08:35.666Z,14.94
2022-10-24T19:11:03.497Z,14.93
2022-10-24T19:13:30.989Z,14.95
2022-10-24T19:16:06.539Z,14.92
2022-10-24T19:18:37.045Z,14.92
2022-10-24T19:21:07.503Z,15.05
2022-10-24T19:23:35.043Z,15.17
2022-10-24T19:26:02.300Z,15.22
2022-10-24T19:28:29.580Z,15.26
2022-10-24T19:30:57.441Z,15.23
2022-10-24T19:33:28.104Z,15.17
2022-10-24T19:35:55.568Z,15.14
2022-10-24T19:38:23.874Z,15.01
2022-10-24T19:40:53.870Z,15.08
2022-10-24T19:43:24.178Z,15.16
2022-10-24T19:46:14.780Z,15.23
2022-10-24T19:48:42.761Z,15.28
2022-10-24T19:51:12.801Z,15.28
2022-10-24T19:53:42.862Z,15.22
2022-10-24T19:56:14.317Z,15.28
2022-10-24T19:58:42.923Z,15.29
2022-10-24T20:01:19.131Z,15.23
2022-10-24T20:03:48.675Z,15.23
2022-10-24T20:06:16.846Z,15.12
2022-10-24T20:08:46.784Z,15.13
2022-10-24T20:11:20.769Z,15.17
2022-10-24T20:13:50.420Z,15.11
2022-10-24T20:16:18.770Z,15.11
2022-10-24T20:18:46.634Z,15.17
2022-10-24T20:21:19.906Z,15.25
2022-10-24T20:23:48.682Z,15.30
2022-10-24T20:26:24.722Z,15.29
2022-10-24T20:28:55.103Z,15.28
2022-10-24T20:31:25.463Z,15.30
2022-10-24T20:33:53.773Z,15.38
2022-10-24T20:36:21.430Z,15.33
2022-10-24T20:38:49.391Z,15.39
2022-10-24T20:41:16.818Z,15.35
2022-10-24T20:43:44.167Z,15.37
2022-10-24T20:46:11.812Z,15.37
2022-10-24T20:48:39.196Z,15.42
2022-10-24T20:51:10.564Z,15.36
2022-10-24T20:53:38.971Z,15.37
2022-10-24T20:56:13.484Z,15.28
2022-10-24T20:58:43.588Z,15.24
2022-10-24T21:01:16.983Z,15.19
2022-10-24T21:03:44.909Z,15.17
2022-10-24T21:06:33.486Z,15.09
2022-10-24T21:11:36.836Z,14.87
2022-10-24T21:14:11.734Z,14.85
2022-10-24T21:16:39.100Z,14.84
2022-10-24T21:19:06.395Z,14.82
2022-10-24T21:21:33.857Z,14.79
2022-10-24T21:24:05.919Z,14.70
2022-10-24T21:26:35.397Z,14.63
2022-10-24T21:29:31.709Z,14.69
2022-10-24T21:31:51.615Z,14.72
2022-10-24T21:34:20.172Z,14.77
2022-10-24T21:36:47.849Z,14.67
2022-10-24T21:39:16.868Z,14.53
2022-10-24T21:41:44.507Z,14.39
2022-10-24T21:44:12.565Z,14.39
2022-10-24T21:46:40.147Z,14.40
2022-10-24T21:49:07.438Z,14.42
2022-10-24T21:51:37.935Z,14.42
2022-10-24T21:54:15.046Z,14.42
2022-10-24T21:56:42.340Z,14.37
2022-10-24T21:59:14.896Z,14.31
2022-10-24T22:01:44.195Z,14.30
2022-10-24T22:04:13.362Z,14.33
2022-10-24T22:06:41.526Z,14.37
2022-10-24T22:09:13.689Z,14.39
2022-10-24T22:11:41.851Z,14.43
2022-10-24T22:14:12.748Z,14.43
2022-10-24T22:16:40.962Z,14.44
2022-10-24T22:19:08.644Z,14.39
2022-10-24T22:21:50.928Z,14.34
2022-10-24T22:24:23.869Z,14.39
2022-10-24T22:26:52.519Z,14.43
2022-10-24T22:29:23.198Z,14.45
2022-10-24T22:31:52.417Z,14.46
2022-10-24T22:34:24.270Z,14.43
2022-10-24T22:37:24.732Z,14.39
2022-10-24T22:39:52.369Z,14.36
2022-10-24T22:42:20.474Z,14.36
2022-10-24T22:44:48.802Z,14.28
2022-10-24T22:47:30.691Z,14.16
2022-10-24T22:50:51.667Z,14.01
2022-10-24T22:53:29.813Z,14.07
2022-10-24T22:56:17.470Z,14.08
2022-10-24T22:58:46.434Z,14.06
2022-10-24T23:01:44.908Z,14.10
2022-10-24T23:04:57.042Z,14.16
2022-10-24T23:07:39.915Z,14.24
2022-10-24T23:10:16.819Z,14.20
2022-10-24T23:12:44.576Z,13.99
2022-10-24T23:15:17.864Z,14.01
2022-10-24T23:17:46.969Z,14.04
2022-10-24T23:20:35.986Z,14.01
2022-10-24T23:23:16.806Z,14.05
2022-10-24T23:26:02.830Z,13.99
2022-10-24T23:29:12.118Z,14.03
2022-10-24T23:31:39.775Z,13.99
2022-10-24T23:34:09.652Z,14.00
2022-10-24T23:36:37.386Z,13.97
2022-10-24T23:39:05.152Z,13.87
2022-10-24T23:41:32.686Z,13.75
2022-10-24T23:44:00.296Z,13.78
2022-10-24T23:46:36.247Z,13.79
2022-10-24T23:49:40.244Z,13.77
2022-10-24T23:52:27.102Z,13.68
2022-10-24T23:54:54.945Z,13.58
2022-10-24T23:57:22.565Z,13.49
2022-10-24T23:59:49.841Z,13.40
